sensor_id;sensor_type;location;lat;lon;timestamp;P1;durP1;ratioP1;P2;durP2;ratioP2
21046;SDS011;10682;50.874;3.656;2023-08-21T00:00:57;8.30;;;2.17;;
21046;SDS011;10682;50.874;3.656;2023-08-21T00:03:24;12.60;;;2.40;;
21046;SDS011;10682;50.874;3.656;2023-08-21T00:05:51;9.68;;;2.53;;
21046;SDS011;10682;50.874;3.656;2023-08-21T00:08:18;6.40;;;2.25;;
21046;SDS011;10682;50.874;3.656;2023-08-21T00:10:45;12.25;;;2.88;;
21046;SDS011;10682;50.874;3.656;2023-08-21T00:13:12;8.07;;;2.30;;
21046;SDS011;10682;50.874;3.656;2023-08-21T00:15:40;6.63;;;1.70;;
21046;SDS011;10682;50.874;3.656;2023-08-21T00:18:07;5.68;;;1.73;;
21046;SDS011;10682;50.874;3.656;2023-08-21T00:20:34;6.95;;;1.95;;
21046;SDS011;10682;50.874;3.656;2023-08-21T00:23:01;7.68;;;2.47;;
21046;SDS011;10682;50.874;3.656;2023-08-21T00:25:30;8.82;;;2.30;;
21046;SDS011;10682;50.874;3.656;2023-08-21T00:27:57;10.95;;;2.70;;
21046;SDS011;10682;50.874;3.656;2023-08-21T00:30:25;7.60;;;1.70;;
21046;SDS011;10682;50.874;3.656;2023-08-21T00:32:52;8.57;;;1.80;;
21046;SDS011;10682;50.874;3.656;2023-08-21T00:35:19;7.20;;;2.65;;
21046;SDS011;10682;50.874;3.656;2023-08-21T00:37:46;4.78;;;1.95;;
21046;SDS011;10682;50.874;3.656;2023-08-21T00:40:13;8.30;;;2.28;;
21046;SDS011;10682;50.874;3.656;2023-08-21T00:42:40;6.88;;;2.40;;
21046;SDS011;10682;50.874;3.656;2023-08-21T00:45:07;8.38;;;2.28;;
21046;SDS011;10682;50.874;3.656;2023-08-21T00:47:35;9.20;;;2.10;;
21046;SDS011;10682;50.874;3.656;2023-08-21T00:50:02;5.10;;;1.70;;
21046;SDS011;10682;50.874;3.656;2023-08-21T00:52:33;5.38;;;1.90;;
21046;SDS011;10682;50.874;3.656;2023-08-21T00:55:02;4.32;;;1.90;;
21046;SDS011;10682;50.874;3.656;2023-08-21T00:57:32;7.10;;;2.25;;
21046;SDS011;10682;50.874;3.656;2023-08-21T01:00:00;9.98;;;2.45;;
21046;SDS011;10682;50.874;3.656;2023-08-21T01:02:27;8.40;;;2.42;;
21046;SDS011;10682;50.874;3.656;2023-08-21T01:04:54;5.45;;;1.90;;
21046;SDS011;10682;50.874;3.656;2023-08-21T01:07:21;6.80;;;2.05;;
21046;SDS011;10682;50.874;3.656;2023-08-21T01:09:53;7.25;;;2.15;;
21046;SDS011;10682;50.874;3.656;2023-08-21T01:12:30;8.02;;;2.10;;
21046;SDS011;10682;50.874;3.656;2023-08-21T01:15:21;7.05;;;2.10;;
21046;SDS011;10682;50.874;3.656;2023-08-21T01:17:49;8.48;;;2.17;;
21046;SDS011;10682;50.874;3.656;2023-08-21T01:20:17;8.70;;;2.20;;
21046;SDS011;10682;50.874;3.656;2023-08-21T01:22:45;4.65;;;2.08;;
21046;SDS011;10682;50.874;3.656;2023-08-21T01:25:12;5.57;;;1.92;;
21046;SDS011;10682;50.874;3.656;2023-08-21T01:27:43;8.82;;;2.63;;
21046;SDS011;10682;50.874;3.656;2023-08-21T01:30:14;5.70;;;2.08;;
21046;SDS011;10682;50.874;3.656;2023-08-21T01:33:05;5.63;;;2.10;;
21046;SDS011;10682;50.874;3.656;2023-08-21T01:35:37;8.52;;;2.15;;
21046;SDS011;10682;50.874;3.656;2023-08-21T01:38:04;5.13;;;2.17;;
21046;SDS011;10682;50.874;3.656;2023-08-21T01:40:32;10.57;;;2.10;;
21046;SDS011;10682;50.874;3.656;2023-08-21T01:42:59;5.53;;;2.17;;
21046;SDS011;10682;50.874;3.656;2023-08-21T01:45:26;5.90;;;1.85;;
21046;SDS011;10682;50.874;3.656;2023-08-21T01:47:54;9.77;;;2.30;;
21046;SDS011;10682;50.874;3.656;2023-08-21T01:50:21;7.50;;;2.40;;
21046;SDS011;10682;50.874;3.656;2023-08-21T01:52:48;5.78;;;2.30;;
21046;SDS011;10682;50.874;3.656;2023-08-21T01:55:15;10.43;;;2.33;;
21046;SDS011;10682;50.874;3.656;2023-08-21T01:57:42;7.63;;;2.38;;
21046;SDS011;10682;50.874;3.656;2023-08-21T02:00:09;7.30;;;2.30;;
21046;SDS011;10682;50.874;3.656;2023-08-21T02:02:39;5.88;;;2.03;;
21046;SDS011;10682;50.874;3.656;2023-08-21T02:05:06;7.07;;;2.05;;
21046;SDS011;10682;50.874;3.656;2023-08-21T02:07:33;5.55;;;2.13;;
21046;SDS011;10682;50.874;3.656;2023-08-21T02:10:01;9.15;;;2.42;;
21046;SDS011;10682;50.874;3.656;2023-08-21T02:12:28;7.68;;;2.10;;
21046;SDS011;10682;50.874;3.656;2023-08-21T02:14:55;5.68;;;2.35;;
21046;SDS011;10682;50.874;3.656;2023-08-21T02:17:22;7.82;;;2.70;;
21046;SDS011;10682;50.874;3.656;2023-08-21T02:19:52;5.68;;;2.85;;
21046;SDS011;10682;50.874;3.656;2023-08-21T02:22:19;6.00;;;2.15;;
21046;SDS011;10682;50.874;3.656;2023-08-21T02:24:47;3.80;;;2.20;;
21046;SDS011;10682;50.874;3.656;2023-08-21T02:27:14;5.70;;;2.40;;
21046;SDS011;10682;50.874;3.656;2023-08-21T02:29:41;5.72;;;2.08;;
21046;SDS011;10682;50.874;3.656;2023-08-21T02:32:08;10.30;;;2.58;;
21046;SDS011;10682;50.874;3.656;2023-08-21T02:34:35;7.03;;;2.30;;
21046;SDS011;10682;50.874;3.656;2023-08-21T02:37:02;12.43;;;3.40;;
21046;SDS011;10682;50.874;3.656;2023-08-21T02:39:29;4.72;;;2.50;;
21046;SDS011;10682;50.874;3.656;2023-08-21T02:41:56;4.95;;;2.17;;
21046;SDS011;10682;50.874;3.656;2023-08-21T02:44:24;7.90;;;2.78;;
21046;SDS011;10682;50.874;3.656;2023-08-21T02:46:51;6.47;;;2.50;;
21046;SDS011;10682;50.874;3.656;2023-08-21T02:49:18;6.50;;;3.05;;
21046;SDS011;10682;50.874;3.656;2023-08-21T02:51:45;8.18;;;2.90;;
21046;SDS011;10682;50.874;3.656;2023-08-21T02:54:12;5.97;;;2.60;;
21046;SDS011;10682;50.874;3.656;2023-08-21T02:56:39;9.40;;;2.40;;
21046;SDS011;10682;50.874;3.656;2023-08-21T02:59:06;4.50;;;2.50;;
21046;SDS011;10682;50.874;3.656;2023-08-21T03:01:33;5.72;;;2.40;;
21046;SDS011;10682;50.874;3.656;2023-08-21T03:04:01;8.32;;;2.80;;
21046;SDS011;10682;50.874;3.656;2023-08-21T03:06:28;5.47;;;2.60;;
21046;SDS011;10682;50.874;3.656;2023-08-21T03:08:55;6.07;;;2.58;;
21046;SDS011;10682;50.874;3.656;2023-08-21T03:11:22;6.68;;;2.40;;
21046;SDS011;10682;50.874;3.656;2023-08-21T03:13:50;11.15;;;2.72;;
21046;SDS011;10682;50.874;3.656;2023-08-21T03:16:16;7.82;;;2.95;;
21046;SDS011;10682;50.874;3.656;2023-08-21T03:18:54;9.98;;;2.80;;
21046;SDS011;10682;50.874;3.656;2023-08-21T03:21:23;9.32;;;3.45;;
21046;SDS011;10682;50.874;3.656;2023-08-21T03:23:55;5.60;;;2.25;;
21046;SDS011;10682;50.874;3.656;2023-08-21T03:26:25;11.10;;;2.78;;
21046;SDS011;10682;50.874;3.656;2023-08-21T03:28:53;7.63;;;2.90;;
21046;SDS011;10682;50.874;3.656;2023-08-21T03:31:20;6.28;;;2.85;;
21046;SDS011;10682;50.874;3.656;2023-08-21T03:33:47;10.57;;;3.25;;
21046;SDS011;10682;50.874;3.656;2023-08-21T03:36:14;7.50;;;3.08;;
21046;SDS011;10682;50.874;3.656;2023-08-21T03:38:41;6.95;;;2.88;;
21046;SDS011;10682;50.874;3.656;2023-08-21T03:41:08;8.48;;;3.05;;
21046;SDS011;10682;50.874;3.656;2023-08-21T03:43:37;7.97;;;2.60;;
21046;SDS011;10682;50.874;3.656;2023-08-21T03:46:04;6.22;;;2.97;;
21046;SDS011;10682;50.874;3.656;2023-08-21T03:48:32;6.72;;;3.13;;
21046;SDS011;10682;50.874;3.656;2023-08-21T03:50:59;7.47;;;2.47;;
21046;SDS011;10682;50.874;3.656;2023-08-21T03:53:26;9.90;;;2.58;;
21046;SDS011;10682;50.874;3.656;2023-08-21T03:55:54;9.85;;;2.58;;
21046;SDS011;10682;50.874;3.656;2023-08-21T03:58:21;7.43;;;2.90;;
21046;SDS011;10682;50.874;3.656;2023-08-21T04:00:48;13.05;;;2.80;;
21046;SDS011;10682;50.874;3.656;2023-08-21T04:03:15;16.40;;;2.90;;
21046;SDS011;10682;50.874;3.656;2023-08-21T04:05:43;7.25;;;2.60;;
21046;SDS011;10682;50.874;3.656;2023-08-21T04:08:10;3.20;;;2.10;;
21046;SDS011;10682;50.874;3.656;2023-08-21T04:10:37;10.35;;;3.30;;
21046;SDS011;10682;50.874;3.656;2023-08-21T04:13:05;10.30;;;2.47;;
21046;SDS011;10682;50.874;3.656;2023-08-21T04:15:33;9.65;;;2.92;;
21046;SDS011;10682;50.874;3.656;2023-08-21T04:18:04;9.65;;;2.63;;
21046;SDS011;10682;50.874;3.656;2023-08-21T04:20:31;4.30;;;2.67;;
21046;SDS011;10682;50.874;3.656;2023-08-21T04:22:58;6.63;;;2.97;;
21046;SDS011;10682;50.874;3.656;2023-08-21T04:25:25;11.40;;;3.47;;
21046;SDS011;10682;50.874;3.656;2023-08-21T04:27:52;5.93;;;3.03;;
21046;SDS011;10682;50.874;3.656;2023-08-21T04:30:20;9.65;;;3.08;;
21046;SDS011;10682;50.874;3.656;2023-08-21T04:32:47;6.88;;;3.33;;
21046;SDS011;10682;50.874;3.656;2023-08-21T04:35:14;15.18;;;3.17;;
21046;SDS011;10682;50.874;3.656;2023-08-21T04:37:46;9.88;;;3.45;;
21046;SDS011;10682;50.874;3.656;2023-08-21T04:40:14;10.52;;;3.50;;
21046;SDS011;10682;50.874;3.656;2023-08-21T04:42:41;8.85;;;2.58;;
21046;SDS011;10682;50.874;3.656;2023-08-21T04:45:08;9.52;;;3.00;;
21046;SDS011;10682;50.874;3.656;2023-08-21T04:50:08;8.75;;;3.05;;
21046;SDS011;10682;50.874;3.656;2023-08-21T04:52:35;9.90;;;3.00;;
21046;SDS011;10682;50.874;3.656;2023-08-21T04:55:03;8.15;;;2.95;;
21046;SDS011;10682;50.874;3.656;2023-08-21T04:57:31;8.38;;;2.63;;
21046;SDS011;10682;50.874;3.656;2023-08-21T04:59:58;8.35;;;3.10;;
21046;SDS011;10682;50.874;3.656;2023-08-21T05:02:25;8.50;;;3.38;;
21046;SDS011;10682;50.874;3.656;2023-08-21T05:04:52;9.00;;;3.17;;
21046;SDS011;10682;50.874;3.656;2023-08-21T05:07:19;9.73;;;2.60;;
21046;SDS011;10682;50.874;3.656;2023-08-21T05:09:46;7.50;;;2.55;;
21046;SDS011;10682;50.874;3.656;2023-08-21T05:12:13;6.10;;;3.00;;
21046;SDS011;10682;50.874;3.656;2023-08-21T05:14:40;11.43;;;3.13;;
21046;SDS011;10682;50.874;3.656;2023-08-21T05:17:07;10.77;;;3.15;;
21046;SDS011;10682;50.874;3.656;2023-08-21T05:19:34;8.85;;;3.38;;
21046;SDS011;10682;50.874;3.656;2023-08-21T05:22:01;5.85;;;2.88;;
21046;SDS011;10682;50.874;3.656;2023-08-21T05:24:29;7.35;;;3.05;;
21046;SDS011;10682;50.874;3.656;2023-08-21T05:26:57;9.40;;;3.40;;
21046;SDS011;10682;50.874;3.656;2023-08-21T05:29:27;10.95;;;3.80;;
21046;SDS011;10682;50.874;3.656;2023-08-21T05:31:55;12.73;;;3.53;;
21046;SDS011;10682;50.874;3.656;2023-08-21T05:34:22;7.70;;;3.40;;
21046;SDS011;10682;50.874;3.656;2023-08-21T05:36:49;10.90;;;3.60;;
21046;SDS011;10682;50.874;3.656;2023-08-21T05:39:16;13.68;;;4.40;;
21046;SDS011;10682;50.874;3.656;2023-08-21T05:41:45;12.27;;;4.45;;
21046;SDS011;10682;50.874;3.656;2023-08-21T05:44:13;15.02;;;4.97;;
21046;SDS011;10682;50.874;3.656;2023-08-21T05:46:40;16.38;;;4.88;;
21046;SDS011;10682;50.874;3.656;2023-08-21T05:49:07;11.57;;;4.38;;
21046;SDS011;10682;50.874;3.656;2023-08-21T05:51:34;20.40;;;5.97;;
21046;SDS011;10682;50.874;3.656;2023-08-21T05:54:01;26.77;;;6.97;;
21046;SDS011;10682;50.874;3.656;2023-08-21T05:56:28;25.80;;;7.82;;
21046;SDS011;10682;50.874;3.656;2023-08-21T05:58:55;22.58;;;7.85;;
21046;SDS011;10682;50.874;3.656;2023-08-21T06:01:22;23.80;;;7.70;;
21046;SDS011;10682;50.874;3.656;2023-08-21T06:03:49;20.42;;;9.02;;
21046;SDS011;10682;50.874;3.656;2023-08-21T06:06:16;20.10;;;8.88;;
21046;SDS011;10682;50.874;3.656;2023-08-21T06:08:43;22.60;;;9.35;;
21046;SDS011;10682;50.874;3.656;2023-08-21T06:11:11;25.75;;;8.20;;
21046;SDS011;10682;50.874;3.656;2023-08-21T06:13:38;25.60;;;9.77;;
21046;SDS011;10682;50.874;3.656;2023-08-21T06:16:06;22.52;;;8.77;;
21046;SDS011;10682;50.874;3.656;2023-08-21T06:18:33;23.88;;;8.48;;
21046;SDS011;10682;50.874;3.656;2023-08-21T06:21:00;24.65;;;8.90;;
21046;SDS011;10682;50.874;3.656;2023-08-21T06:23:27;33.95;;;10.52;;
21046;SDS011;10682;50.874;3.656;2023-08-21T06:25:54;25.50;;;9.65;;
21046;SDS011;10682;50.874;3.656;2023-08-21T06:28:21;39.40;;;12.75;;
21046;SDS011;10682;50.874;3.656;2023-08-21T06:30:55;29.98;;;10.63;;
21046;SDS011;10682;50.874;3.656;2023-08-21T06:33:24;34.65;;;11.02;;
21046;SDS011;10682;50.874;3.656;2023-08-21T06:35:51;36.83;;;12.50;;
21046;SDS011;10682;50.874;3.656;2023-08-21T06:38:18;36.50;;;12.50;;
21046;SDS011;10682;50.874;3.656;2023-08-21T06:40:45;35.47;;;12.10;;
21046;SDS011;10682;50.874;3.656;2023-08-21T06:43:12;36.28;;;12.95;;
21046;SDS011;10682;50.874;3.656;2023-08-21T06:45:39;37.92;;;13.20;;
21046;SDS011;10682;50.874;3.656;2023-08-21T06:48:07;41.67;;;14.00;;
21046;SDS011;10682;50.874;3.656;2023-08-21T06:50:36;38.75;;;13.88;;
21046;SDS011;10682;50.874;3.656;2023-08-21T06:53:04;40.03;;;14.52;;
21046;SDS011;10682;50.874;3.656;2023-08-21T06:55:31;46.92;;;15.23;;
21046;SDS011;10682;50.874;3.656;2023-08-21T06:57:58;44.08;;;14.15;;
21046;SDS011;10682;50.874;3.656;2023-08-21T07:00:25;41.83;;;13.82;;
21046;SDS011;10682;50.874;3.656;2023-08-21T07:02:52;41.58;;;14.35;;
21046;SDS011;10682;50.874;3.656;2023-08-21T07:05:20;36.42;;;13.80;;
21046;SDS011;10682;50.874;3.656;2023-08-21T07:07:47;35.30;;;15.02;;
21046;SDS011;10682;50.874;3.656;2023-08-21T07:10:14;34.50;;;14.27;;
21046;SDS011;10682;50.874;3.656;2023-08-21T07:12:41;39.53;;;15.02;;
21046;SDS011;10682;50.874;3.656;2023-08-21T07:15:09;43.80;;;15.65;;
21046;SDS011;10682;50.874;3.656;2023-08-21T07:17:36;46.08;;;16.77;;
21046;SDS011;10682;50.874;3.656;2023-08-21T07:20:03;36.53;;;16.58;;
21046;SDS011;10682;50.874;3.656;2023-08-21T07:22:32;42.60;;;17.30;;
21046;SDS011;10682;50.874;3.656;2023-08-21T07:24:59;45.30;;;18.73;;
21046;SDS011;10682;50.874;3.656;2023-08-21T07:27:31;49.88;;;18.20;;
21046;SDS011;10682;50.874;3.656;2023-08-21T07:29:58;46.40;;;18.42;;
21046;SDS011;10682;50.874;3.656;2023-08-21T07:32:25;43.38;;;17.80;;
21046;SDS011;10682;50.874;3.656;2023-08-21T07:34:55;46.63;;;19.17;;
21046;SDS011;10682;50.874;3.656;2023-08-21T07:37:22;44.65;;;18.80;;
21046;SDS011;10682;50.874;3.656;2023-08-21T07:39:50;47.53;;;20.10;;
21046;SDS011;10682;50.874;3.656;2023-08-21T07:42:19;47.25;;;19.77;;
21046;SDS011;10682;50.874;3.656;2023-08-21T07:44:46;47.58;;;20.52;;
21046;SDS011;10682;50.874;3.656;2023-08-21T07:47:13;52.15;;;21.05;;
21046;SDS011;10682;50.874;3.656;2023-08-21T07:49:40;45.55;;;20.92;;
21046;SDS011;10682;50.874;3.656;2023-08-21T07:52:07;49.97;;;21.90;;
21046;SDS011;10682;50.874;3.656;2023-08-21T07:54:34;52.95;;;22.05;;
21046;SDS011;10682;50.874;3.656;2023-08-21T07:57:01;47.88;;;21.30;;
21046;SDS011;10682;50.874;3.656;2023-08-21T07:59:30;41.65;;;20.42;;
21046;SDS011;10682;50.874;3.656;2023-08-21T08:01:57;42.97;;;20.65;;
21046;SDS011;10682;50.874;3.656;2023-08-21T08:04:26;46.15;;;20.85;;
21046;SDS011;10682;50.874;3.656;2023-08-21T08:06:54;46.17;;;20.38;;
21046;SDS011;10682;50.874;3.656;2023-08-21T08:09:21;52.90;;;23.30;;
21046;SDS011;10682;50.874;3.656;2023-08-21T08:11:50;45.88;;;23.75;;
21046;SDS011;10682;50.874;3.656;2023-08-21T08:14:17;44.72;;;22.98;;
21046;SDS011;10682;50.874;3.656;2023-08-21T08:16:44;50.85;;;23.90;;
21046;SDS011;10682;50.874;3.656;2023-08-21T08:19:11;51.13;;;21.10;;
21046;SDS011;10682;50.874;3.656;2023-08-21T08:21:38;44.55;;;19.67;;
21046;SDS011;10682;50.874;3.656;2023-08-21T08:24:05;37.67;;;19.70;;
21046;SDS011;10682;50.874;3.656;2023-08-21T08:26:32;36.85;;;17.60;;
21046;SDS011;10682;50.874;3.656;2023-08-21T08:29:00;36.22;;;17.35;;
21046;SDS011;10682;50.874;3.656;2023-08-21T08:31:27;29.38;;;16.20;;
21046;SDS011;10682;50.874;3.656;2023-08-21T08:33:54;38.95;;;16.80;;
21046;SDS011;10682;50.874;3.656;2023-08-21T08:36:21;35.20;;;16.75;;
21046;SDS011;10682;50.874;3.656;2023-08-21T08:38:48;36.00;;;17.35;;
21046;SDS011;10682;50.874;3.656;2023-08-21T08:42:02;38.05;;;17.65;;
21046;SDS011;10682;50.874;3.656;2023-08-21T08:44:10;38.35;;;17.67;;
21046;SDS011;10682;50.874;3.656;2023-08-21T08:46:43;40.40;;;18.40;;
21046;SDS011;10682;50.874;3.656;2023-08-21T08:49:11;35.00;;;17.85;;
21046;SDS011;10682;50.874;3.656;2023-08-21T08:51:39;38.90;;;17.83;;
21046;SDS011;10682;50.874;3.656;2023-08-21T08:54:09;38.85;;;18.10;;
21046;SDS011;10682;50.874;3.656;2023-08-21T08:56:38;33.67;;;17.35;;
21046;SDS011;10682;50.874;3.656;2023-08-21T08:59:07;39.38;;;19.35;;
21046;SDS011;10682;50.874;3.656;2023-08-21T09:01:35;38.90;;;17.70;;
21046;SDS011;10682;50.874;3.656;2023-08-21T09:04:02;38.53;;;16.48;;
21046;SDS011;10682;50.874;3.656;2023-08-21T09:06:32;31.13;;;14.82;;
21046;SDS011;10682;50.874;3.656;2023-08-21T09:09:00;40.97;;;17.30;;
21046;SDS011;10682;50.874;3.656;2023-08-21T09:11:28;43.10;;;19.15;;
21046;SDS011;10682;50.874;3.656;2023-08-21T09:13:55;37.58;;;18.23;;
21046;SDS011;10682;50.874;3.656;2023-08-21T09:16:23;42.17;;;19.80;;
21046;SDS011;10682;50.874;3.656;2023-08-21T09:18:53;42.28;;;19.02;;
21046;SDS011;10682;50.874;3.656;2023-08-21T09:21:25;40.58;;;17.63;;
21046;SDS011;10682;50.874;3.656;2023-08-21T09:23:58;41.38;;;17.48;;
21046;SDS011;10682;50.874;3.656;2023-08-21T09:26:32;43.53;;;17.30;;
21046;SDS011;10682;50.874;3.656;2023-08-21T09:28:59;41.08;;;16.73;;
21046;SDS011;10682;50.874;3.656;2023-08-21T09:31:33;35.28;;;16.13;;
21046;SDS011;10682;50.874;3.656;2023-08-21T09:34:06;34.78;;;15.43;;
21046;SDS011;10682;50.874;3.656;2023-08-21T09:36:34;34.55;;;15.13;;
21046;SDS011;10682;50.874;3.656;2023-08-21T09:39:02;37.20;;;15.52;;
21046;SDS011;10682;50.874;3.656;2023-08-21T09:41:30;32.55;;;14.52;;
21046;SDS011;10682;50.874;3.656;2023-08-21T09:44:00;41.25;;;16.73;;
21046;SDS011;10682;50.874;3.656;2023-08-21T09:46:28;34.78;;;15.60;;
21046;SDS011;10682;50.874;3.656;2023-08-21T09:48:56;32.65;;;15.63;;
21046;SDS011;10682;50.874;3.656;2023-08-21T09:51:23;36.78;;;15.02;;
21046;SDS011;10682;50.874;3.656;2023-08-21T09:53:50;31.48;;;15.38;;
21046;SDS011;10682;50.874;3.656;2023-08-21T09:56:21;33.00;;;13.68;;
21046;SDS011;10682;50.874;3.656;2023-08-21T09:58:48;34.17;;;14.30;;
21046;SDS011;10682;50.874;3.656;2023-08-21T10:01:17;32.67;;;14.68;;
21046;SDS011;10682;50.874;3.656;2023-08-21T10:03:47;34.58;;;13.95;;
21046;SDS011;10682;50.874;3.656;2023-08-21T10:06:16;32.75;;;13.45;;
21046;SDS011;10682;50.874;3.656;2023-08-21T10:08:49;26.00;;;11.30;;
21046;SDS011;10682;50.874;3.656;2023-08-21T10:11:21;23.70;;;10.52;;
21046;SDS011;10682;50.874;3.656;2023-08-21T10:13:49;25.73;;;12.05;;
21046;SDS011;10682;50.874;3.656;2023-08-21T10:16:18;25.73;;;11.52;;
21046;SDS011;10682;50.874;3.656;2023-08-21T10:18:51;27.50;;;11.00;;
21046;SDS011;10682;50.874;3.656;2023-08-21T10:21:20;28.88;;;11.88;;
21046;SDS011;10682;50.874;3.656;2023-08-21T10:23:49;30.85;;;12.20;;
21046;SDS011;10682;50.874;3.656;2023-08-21T10:26:19;26.80;;;11.20;;
21046;SDS011;10682;50.874;3.656;2023-08-21T10:28:56;28.30;;;11.73;;
21046;SDS011;10682;50.874;3.656;2023-08-21T10:31:32;27.80;;;9.82;;
21046;SDS011;10682;50.874;3.656;2023-08-21T10:34:09;28.08;;;11.55;;
21046;SDS011;10682;50.874;3.656;2023-08-21T10:39:14;10.85;;;4.03;;
21046;SDS011;10682;50.874;3.656;2023-08-21T10:41:41;15.30;;;5.47;;
21046;SDS011;10682;50.874;3.656;2023-08-21T10:49:54;20.42;;;7.80;;
21046;SDS011;10682;50.874;3.656;2023-08-21T10:52:27;19.42;;;8.18;;
21046;SDS011;10682;50.874;3.656;2023-08-21T10:55:01;14.27;;;6.63;;
21046;SDS011;10682;50.874;3.656;2023-08-21T10:57:32;14.55;;;6.53;;
21046;SDS011;10682;50.874;3.656;2023-08-21T11:02:30;11.57;;;4.63;;
21046;SDS011;10682;50.874;3.656;2023-08-21T11:04:59;14.05;;;6.05;;
21046;SDS011;10682;50.874;3.656;2023-08-21T11:07:27;13.10;;;5.07;;
21046;SDS011;10682;50.874;3.656;2023-08-21T11:09:55;10.45;;;4.22;;
21046;SDS011;10682;50.874;3.656;2023-08-21T11:12:23;6.57;;;3.13;;
21046;SDS011;10682;50.874;3.656;2023-08-21T11:14:51;22.48;;;8.10;;
21046;SDS011;10682;50.874;3.656;2023-08-21T11:17:18;15.70;;;5.53;;
21046;SDS011;10682;50.874;3.656;2023-08-21T11:19:46;9.73;;;4.60;;
21046;SDS011;10682;50.874;3.656;2023-08-21T11:22:15;11.32;;;4.90;;
21046;SDS011;10682;50.874;3.656;2023-08-21T11:24:46;9.32;;;4.53;;
21046;SDS011;10682;50.874;3.656;2023-08-21T11:27:16;11.98;;;4.80;;
21046;SDS011;10682;50.874;3.656;2023-08-21T11:29:48;10.95;;;5.32;;
21046;SDS011;10682;50.874;3.656;2023-08-21T11:34:56;10.18;;;5.20;;
21046;SDS011;10682;50.874;3.656;2023-08-21T11:37:24;11.18;;;5.75;;
21046;SDS011;10682;50.874;3.656;2023-08-21T11:39:54;15.07;;;6.28;;
21046;SDS011;10682;50.874;3.656;2023-08-21T11:42:32;18.10;;;6.70;;
21046;SDS011;10682;50.874;3.656;2023-08-21T11:45:00;15.93;;;5.28;;
21046;SDS011;10682;50.874;3.656;2023-08-21T11:47:32;10.15;;;4.68;;
21046;SDS011;10682;50.874;3.656;2023-08-21T11:50:05;11.02;;;5.93;;
21046;SDS011;10682;50.874;3.656;2023-08-21T11:52:36;13.85;;;4.95;;
21046;SDS011;10682;50.874;3.656;2023-08-21T11:55:08;15.23;;;6.15;;
21046;SDS011;10682;50.874;3.656;2023-08-21T11:57:48;11.07;;;5.70;;
21046;SDS011;10682;50.874;3.656;2023-08-21T12:00:17;16.48;;;6.38;;
21046;SDS011;10682;50.874;3.656;2023-08-21T12:02:58;16.27;;;6.53;;
21046;SDS011;10682;50.874;3.656;2023-08-21T12:05:28;12.52;;;6.43;;
21046;SDS011;10682;50.874;3.656;2023-08-21T12:07:55;16.23;;;6.25;;
21046;SDS011;10682;50.874;3.656;2023-08-21T12:10:23;13.15;;;5.40;;
21046;SDS011;10682;50.874;3.656;2023-08-21T12:12:52;12.07;;;5.88;;
21046;SDS011;10682;50.874;3.656;2023-08-21T12:15:19;12.68;;;5.72;;
21046;SDS011;10682;50.874;3.656;2023-08-21T12:17:46;12.73;;;5.05;;
21046;SDS011;10682;50.874;3.656;2023-08-21T12:20:14;11.85;;;5.45;;
21046;SDS011;10682;50.874;3.656;2023-08-21T12:22:41;11.82;;;4.82;;
21046;SDS011;10682;50.874;3.656;2023-08-21T12:25:11;13.05;;;5.00;;
21046;SDS011;10682;50.874;3.656;2023-08-21T12:27:40;11.95;;;4.93;;
21046;SDS011;10682;50.874;3.656;2023-08-21T12:30:07;12.10;;;6.07;;
21046;SDS011;10682;50.874;3.656;2023-08-21T12:32:35;9.98;;;4.93;;
21046;SDS011;10682;50.874;3.656;2023-08-21T12:35:02;11.82;;;6.07;;
21046;SDS011;10682;50.874;3.656;2023-08-21T12:37:30;15.82;;;6.28;;
21046;SDS011;10682;50.874;3.656;2023-08-21T12:39:58;10.68;;;4.80;;
21046;SDS011;10682;50.874;3.656;2023-08-21T12:42:25;9.73;;;4.53;;
21046;SDS011;10682;50.874;3.656;2023-08-21T12:44:52;10.25;;;4.97;;
21046;SDS011;10682;50.874;3.656;2023-08-21T12:47:19;11.23;;;5.60;;
21046;SDS011;10682;50.874;3.656;2023-08-21T12:49:47;12.65;;;5.90;;
21046;SDS011;10682;50.874;3.656;2023-08-21T12:52:14;9.73;;;5.05;;
21046;SDS011;10682;50.874;3.656;2023-08-21T12:54:41;7.35;;;4.28;;
21046;SDS011;10682;50.874;3.656;2023-08-21T12:57:09;9.65;;;4.57;;
21046;SDS011;10682;50.874;3.656;2023-08-21T12:59:37;7.53;;;3.78;;
21046;SDS011;10682;50.874;3.656;2023-08-21T13:02:05;8.43;;;4.40;;
21046;SDS011;10682;50.874;3.656;2023-08-21T13:04:32;7.85;;;4.03;;
21046;SDS011;10682;50.874;3.656;2023-08-21T13:07:01;8.40;;;4.07;;
21046;SDS011;10682;50.874;3.656;2023-08-21T13:09:29;9.80;;;2.78;;
21046;SDS011;10682;50.874;3.656;2023-08-21T13:11:57;5.65;;;2.50;;
21046;SDS011;10682;50.874;3.656;2023-08-21T13:14:24;4.85;;;2.42;;
21046;SDS011;10682;50.874;3.656;2023-08-21T13:16:51;5.55;;;2.00;;
21046;SDS011;10682;50.874;3.656;2023-08-21T13:19:18;6.20;;;2.25;;
21046;SDS011;10682;50.874;3.656;2023-08-21T13:21:45;3.53;;;2.08;;
21046;SDS011;10682;50.874;3.656;2023-08-21T13:26:45;9.20;;;2.70;;
21046;SDS011;10682;50.874;3.656;2023-08-21T13:29:12;9.07;;;2.72;;
21046;SDS011;10682;50.874;3.656;2023-08-21T13:31:40;5.10;;;2.20;;
21046;SDS011;10682;50.874;3.656;2023-08-21T13:34:07;4.15;;;1.95;;
21046;SDS011;10682;50.874;3.656;2023-08-21T13:36:35;3.50;;;1.70;;
21046;SDS011;10682;50.874;3.656;2023-08-21T13:39:04;3.80;;;1.75;;
21046;SDS011;10682;50.874;3.656;2023-08-21T13:41:32;6.97;;;1.90;;
21046;SDS011;10682;50.874;3.656;2023-08-21T13:43:59;3.65;;;1.70;;
21046;SDS011;10682;50.874;3.656;2023-08-21T13:46:32;5.30;;;2.05;;
21046;SDS011;10682;50.874;3.656;2023-08-21T13:49:09;6.78;;;2.05;;
21046;SDS011;10682;50.874;3.656;2023-08-21T13:51:37;4.35;;;1.75;;
21046;SDS011;10682;50.874;3.656;2023-08-21T13:54:04;5.38;;;2.38;;
21046;SDS011;10682;50.874;3.656;2023-08-21T13:56:31;6.53;;;2.25;;
21046;SDS011;10682;50.874;3.656;2023-08-21T13:59:00;3.47;;;1.60;;
21046;SDS011;10682;50.874;3.656;2023-08-21T14:01:27;7.18;;;2.20;;
21046;SDS011;10682;50.874;3.656;2023-08-21T14:03:54;4.38;;;2.03;;
21046;SDS011;10682;50.874;3.656;2023-08-21T14:06:22;4.47;;;1.98;;
21046;SDS011;10682;50.874;3.656;2023-08-21T14:08:50;4.78;;;2.00;;
21046;SDS011;10682;50.874;3.656;2023-08-21T14:11:18;5.85;;;2.33;;
21046;SDS011;10682;50.874;3.656;2023-08-21T14:13:45;8.63;;;2.00;;
21046;SDS011;10682;50.874;3.656;2023-08-21T14:16:12;3.67;;;1.70;;
21046;SDS011;10682;50.874;3.656;2023-08-21T14:18:39;3.00;;;1.70;;
21046;SDS011;10682;50.874;3.656;2023-08-21T14:21:06;4.15;;;1.80;;
21046;SDS011;10682;50.874;3.656;2023-08-21T14:23:34;6.70;;;1.90;;
21046;SDS011;10682;50.874;3.656;2023-08-21T14:26:01;8.05;;;1.80;;
21046;SDS011;10682;50.874;3.656;2023-08-21T14:28:28;4.00;;;1.92;;
21046;SDS011;10682;50.874;3.656;2023-08-21T14:30:56;7.32;;;2.22;;
21046;SDS011;10682;50.874;3.656;2023-08-21T14:33:26;6.55;;;2.10;;
21046;SDS011;10682;50.874;3.656;2023-08-21T14:35:53;4.30;;;2.10;;
21046;SDS011;10682;50.874;3.656;2023-08-21T14:38:20;4.60;;;2.38;;
21046;SDS011;10682;50.874;3.656;2023-08-21T14:40:48;9.40;;;2.00;;
21046;SDS011;10682;50.874;3.656;2023-08-21T14:43:17;4.88;;;2.22;;
21046;SDS011;10682;50.874;3.656;2023-08-21T14:45:45;7.38;;;2.10;;
21046;SDS011;10682;50.874;3.656;2023-08-21T14:48:13;5.72;;;2.83;;
21046;SDS011;10682;50.874;3.656;2023-08-21T14:50:40;6.88;;;2.22;;
21046;SDS011;10682;50.874;3.656;2023-08-21T14:53:07;3.08;;;2.05;;
21046;SDS011;10682;50.874;3.656;2023-08-21T14:55:34;6.05;;;2.00;;
21046;SDS011;10682;50.874;3.656;2023-08-21T14:58:01;4.68;;;2.08;;
21046;SDS011;10682;50.874;3.656;2023-08-21T15:00:33;2.97;;;1.73;;
21046;SDS011;10682;50.874;3.656;2023-08-21T15:03:00;5.70;;;1.90;;